createdAt,value
2023-04-19T00:00:01.652Z,100.00
2023-04-19T00:02:47.719Z,100.00
2023-04-19T00:05:35.638Z,100.00
2023-04-19T00:08:21.615Z,100.00
2023-04-19T00:11:07.627Z,100.00
2023-04-19T00:13:53.817Z,100.00
2023-04-19T00:16:39.696Z,100.00
2023-04-19T00:19:26.061Z,100.00
2023-04-19T00:22:12.027Z,100.00
2023-04-19T00:24:57.934Z,100.00
2023-04-19T00:27:43.845Z,100.00
2023-04-19T00:30:29.701Z,100.00
2023-04-19T00:33:15.547Z,100.00
2023-04-19T00:36:01.458Z,100.00
2023-04-19T00:38:47.356Z,100.00
2023-04-19T00:41:33.345Z,100.00
2023-04-19T00:44:19.203Z,100.00
2023-04-19T00:47:05.008Z,100.00
2023-04-19T00:49:50.919Z,100.00
2023-04-19T00:52:36.833Z,100.00
2023-04-19T00:55:22.620Z,100.00
2023-04-19T00:58:08.710Z,100.00
2023-04-19T01:00:54.546Z,100.00
2023-04-19T01:03:40.643Z,100.00
2023-04-19T01:06:26.950Z,100.00
2023-04-19T01:09:12.616Z,100.00
2023-04-19T01:11:58.537Z,100.00
2023-04-19T01:14:44.406Z,100.00
2023-04-19T01:17:30.327Z,100.00
2023-04-19T01:20:16.286Z,100.00
2023-04-19T01:23:02.125Z,100.00
2023-04-19T01:25:48.238Z,100.00
2023-04-19T01:28:34.454Z,100.00
2023-04-19T01:31:20.382Z,100.00
2023-04-19T01:34:06.754Z,100.00
2023-04-19T01:36:52.712Z,100.00
2023-04-19T01:39:38.775Z,100.00
2023-04-19T01:42:24.751Z,100.00
2023-04-19T01:45:10.542Z,100.00
2023-04-19T01:47:56.594Z,100.00
2023-04-19T01:50:42.637Z,100.00
2023-04-19T01:53:28.530Z,100.00
2023-04-19T01:56:14.585Z,100.00
2023-04-19T01:59:00.476Z,100.00
2023-04-19T02:01:46.295Z,100.00
2023-04-19T02:04:32.292Z,100.00
2023-04-19T02:07:18.175Z,100.00
2023-04-19T02:10:04.104Z,100.00
2023-04-19T02:12:49.931Z,100.00
2023-04-19T02:15:35.810Z,100.00
2023-04-19T02:18:21.714Z,100.00
2023-04-19T02:21:07.597Z,100.00
2023-04-19T02:23:53.558Z,100.00
2023-04-19T02:26:39.687Z,100.00
2023-04-19T02:29:25.476Z,100.00
2023-04-19T02:32:11.474Z,100.00
2023-04-19T02:34:57.308Z,100.00
2023-04-19T02:37:43.227Z,100.00
2023-04-19T02:40:29.101Z,100.00
2023-04-19T02:43:14.959Z,100.00
2023-04-19T02:46:00.813Z,100.00
2023-04-19T02:48:46.833Z,100.00
2023-04-19T02:51:32.784Z,100.00
2023-04-19T02:54:18.661Z,100.00
2023-04-19T02:57:04.530Z,100.00
2023-04-19T02:59:50.370Z,100.00
2023-04-19T03:02:36.381Z,100.00
2023-04-19T03:05:22.358Z,100.00
2023-04-19T03:08:08.296Z,100.00
2023-04-19T03:10:54.106Z,100.00
2023-04-19T03:13:39.953Z,100.00
2023-04-19T03:16:25.942Z,100.00
2023-04-19T03:19:11.896Z,100.00
2023-04-19T03:21:57.694Z,100.00
2023-04-19T03:24:43.614Z,100.00
2023-04-19T03:27:29.488Z,100.00
2023-04-19T03:30:15.556Z,100.00
2023-04-19T03:33:01.386Z,100.00
2023-04-19T03:35:47.256Z,100.00
2023-04-19T03:38:33.141Z,100.00
2023-04-19T03:41:19.113Z,100.00
2023-04-19T03:44:05.106Z,100.00
2023-04-19T03:46:52.959Z,100.00
2023-04-19T03:49:38.686Z,100.00
2023-04-19T03:52:24.583Z,100.00
2023-04-19T03:55:10.480Z,100.00
2023-04-19T03:57:56.387Z,100.00
2023-04-19T04:00:42.363Z,100.00
2023-04-19T04:03:28.366Z,100.00
2023-04-19T04:06:14.606Z,100.00
2023-04-19T04:09:00.594Z,100.00
2023-04-19T04:11:46.586Z,100.00
2023-04-19T04:14:32.474Z,100.00
2023-04-19T04:17:18.324Z,100.00
2023-04-19T04:20:04.278Z,100.00
2023-04-19T04:22:50.220Z,100.00
2023-04-19T04:25:36.057Z,100.00
2023-04-19T04:28:21.975Z,100.00
2023-04-19T04:31:07.920Z,100.00
2023-04-19T04:33:53.832Z,96.45
2023-04-19T04:36:39.818Z,99.65
2023-04-19T04:39:25.697Z,100.00
2023-04-19T04:42:11.543Z,100.00
2023-04-19T04:44:57.528Z,100.00
2023-04-19T04:47:43.435Z,100.00
2023-04-19T04:50:29.343Z,100.00
2023-04-19T04:53:15.446Z,100.00
2023-04-19T04:56:01.405Z,100.00
2023-04-19T04:58:47.291Z,100.00
2023-04-19T05:01:33.192Z,100.00
2023-04-19T05:04:19.188Z,100.00
2023-04-19T05:07:05.431Z,100.00
2023-04-19T05:09:51.311Z,100.00
2023-04-19T05:12:37.292Z,100.00
2023-04-19T05:15:23.240Z,100.00
2023-04-19T05:18:09.126Z,100.00
2023-04-19T05:20:55.014Z,100.00
2023-04-19T05:23:40.980Z,100.00
2023-04-19T05:26:26.936Z,100.00
2023-04-19T05:29:12.856Z,100.00
2023-04-19T05:31:58.795Z,100.00
2023-04-19T05:34:44.684Z,100.00
2023-04-19T05:37:30.549Z,100.00
2023-04-19T05:40:16.450Z,100.00
2023-04-19T05:43:02.405Z,100.00
2023-04-19T05:45:48.440Z,100.00
2023-04-19T05:48:34.586Z,100.00
2023-04-19T05:51:20.550Z,100.00
2023-04-19T05:54:06.397Z,100.00
2023-04-19T05:56:52.316Z,100.00
2023-04-19T05:59:38.295Z,100.00
2023-04-19T06:02:24.303Z,100.00
2023-04-19T06:05:11.247Z,100.00
2023-04-19T06:08:02.676Z,100.00
2023-04-19T06:10:54.466Z,100.00
2023-04-19T06:13:43.088Z,100.00
2023-04-19T06:16:28.900Z,100.00
2023-04-19T06:19:14.930Z,100.00
2023-04-19T06:22:00.861Z,100.00
2023-04-19T06:24:48.937Z,100.00
2023-04-19T06:27:34.816Z,100.00
2023-04-19T06:30:20.815Z,100.00
2023-04-19T06:33:06.683Z,100.00
2023-04-19T06:35:52.776Z,100.00
2023-04-19T06:38:38.640Z,100.00
2023-04-19T06:41:24.615Z,100.00
2023-04-19T06:44:10.776Z,100.00
2023-04-19T06:46:56.856Z,100.00
2023-04-19T06:49:42.740Z,100.00
2023-04-19T06:52:28.640Z,100.00
2023-04-19T06:55:14.514Z,100.00
2023-04-19T06:58:00.573Z,100.00
2023-04-19T07:00:46.323Z,100.00
2023-04-19T07:03:32.417Z,100.00
2023-04-19T07:06:18.657Z,100.00
2023-04-19T07:09:04.598Z,100.00
2023-04-19T07:11:50.565Z,100.00
2023-04-19T07:14:36.507Z,100.00
2023-04-19T07:17:22.310Z,100.00
2023-04-19T07:20:08.419Z,100.00
2023-04-19T07:22:54.352Z,100.00
2023-04-19T07:25:40.318Z,100.00
2023-04-19T07:28:26.114Z,100.00
2023-04-19T07:31:11.905Z,100.00
2023-04-19T07:33:57.724Z,100.00
2023-04-19T07:36:43.574Z,100.00
2023-04-19T07:39:29.575Z,100.00
2023-04-19T07:42:15.598Z,100.00
2023-04-19T07:45:01.396Z,100.00
2023-04-19T07:47:47.531Z,100.00
2023-04-19T07:50:33.332Z,100.00
2023-04-19T07:53:19.325Z,100.00
2023-04-19T07:56:05.413Z,100.00
2023-04-19T07:59:04.513Z,100.00
2023-04-19T08:01:54.251Z,100.00
2023-04-19T08:04:40.747Z,100.00
2023-04-19T08:07:26.830Z,100.00
2023-04-19T08:10:12.820Z,99.92
2023-04-19T08:13:05.985Z,98.95
2023-04-19T08:16:27.209Z,99.03
2023-04-19T08:18:59.034Z,96.60
2023-04-19T08:21:44.866Z,100.00
2023-04-19T08:24:30.732Z,95.99
2023-04-19T08:27:16.699Z,93.13
2023-04-19T08:30:02.531Z,92.61
2023-04-19T08:32:48.530Z,89.96
2023-04-19T08:35:34.361Z,89.70
2023-04-19T08:38:20.390Z,91.88
2023-04-19T08:41:06.377Z,87.48
2023-04-19T08:43:52.229Z,89.33
2023-04-19T08:46:38.378Z,88.51
2023-04-19T08:49:24.667Z,87.36
2023-04-19T08:52:10.628Z,84.88
2023-04-19T08:54:56.574Z,87.67
2023-04-19T08:57:42.336Z,87.32
2023-04-19T09:00:28.312Z,84.96
2023-04-19T09:03:14.460Z,86.48
2023-04-19T09:06:00.977Z,88.78
2023-04-19T09:08:47.395Z,90.19
2023-04-19T09:11:33.324Z,88.00
2023-04-19T09:14:19.254Z,84.21
2023-04-19T09:17:05.117Z,83.71
2023-04-19T09:19:51.133Z,84.84
2023-04-19T09:22:36.994Z,84.34
2023-04-19T09:25:43.746Z,80.91
2023-04-19T09:28:29.153Z,78.72
2023-04-19T09:31:35.412Z,77.73
2023-04-19T09:34:21.174Z,74.23
2023-04-19T09:37:13.449Z,73.00
2023-04-19T09:40:05.867Z,72.98
2023-04-19T09:45:40.746Z,69.71
2023-04-19T09:48:26.498Z,71.61
2023-04-19T09:51:14.545Z,69.26
2023-04-19T09:54:00.979Z,69.94
2023-04-19T09:56:46.943Z,67.86
2023-04-19T09:59:32.839Z,68.73
2023-04-19T10:02:19.034Z,73.16
2023-04-19T10:05:19.734Z,73.58
2023-04-19T10:08:07.244Z,73.91
2023-04-19T10:10:53.132Z,74.47
2023-04-19T10:13:39.003Z,70.99
2023-04-19T10:16:25.029Z,71.32
2023-04-19T10:19:10.833Z,73.28
2023-04-19T10:21:56.709Z,73.01
2023-04-19T10:24:44.507Z,72.72
2023-04-19T10:27:30.954Z,71.97
2023-04-19T10:30:16.939Z,71.68
2023-04-19T10:33:02.889Z,71.99
2023-04-19T10:35:49.141Z,73.80
2023-04-19T10:38:35.045Z,73.09
2023-04-19T10:41:20.971Z,73.21
2023-04-19T10:44:06.963Z,72.18
2023-04-19T10:46:52.994Z,72.37
2023-04-19T10:49:38.992Z,69.43
2023-04-19T10:52:24.945Z,71.00
2023-04-19T10:55:10.843Z,71.64
2023-04-19T10:57:56.751Z,72.00
2023-04-19T11:00:42.647Z,71.99
2023-04-19T11:03:29.045Z,73.16
2023-04-19T11:06:15.506Z,71.62
2023-04-19T11:09:01.746Z,71.16
2023-04-19T11:11:47.625Z,70.46
2023-04-19T11:14:33.659Z,70.79
2023-04-19T11:17:19.605Z,68.05
2023-04-19T11:20:05.512Z,70.02
2023-04-19T11:22:51.635Z,71.67
2023-04-19T11:25:37.360Z,70.39
2023-04-19T11:28:23.365Z,72.96
2023-04-19T11:31:09.452Z,71.25
2023-04-19T11:33:55.330Z,70.14
2023-04-19T11:36:41.141Z,70.46
2023-04-19T11:39:27.102Z,71.18
2023-04-19T11:42:12.950Z,70.81
2023-04-19T11:45:00.808Z,68.65
2023-04-19T11:47:46.881Z,67.96
2023-04-19T11:50:33.023Z,70.87
2023-04-19T11:53:19.082Z,70.49
2023-04-19T11:56:05.262Z,69.26
2023-04-19T11:58:51.695Z,68.09
2023-04-19T12:01:37.636Z,67.98
2023-04-19T12:04:23.664Z,68.90
2023-04-19T12:07:10.046Z,65.97
2023-04-19T12:09:56.056Z,66.73
2023-04-19T12:12:42.221Z,69.20
2023-04-19T12:15:28.829Z,67.66
2023-04-19T12:18:15.294Z,68.27
2023-04-19T12:21:01.646Z,65.48
2023-04-19T12:23:47.689Z,68.18
2023-04-19T12:26:33.602Z,65.25
2023-04-19T12:29:19.795Z,62.94
2023-04-19T12:32:05.824Z,63.27
2023-04-19T12:34:51.776Z,65.69
2023-04-19T12:37:37.810Z,63.09
2023-04-19T12:40:23.813Z,64.59
2023-04-19T12:43:09.643Z,64.57
2023-04-19T12:45:55.672Z,65.43
2023-04-19T12:48:41.507Z,64.78
2023-04-19T12:51:27.334Z,64.83
2023-04-19T12:54:13.425Z,63.94
2023-04-19T12:56:59.763Z,63.55
2023-04-19T12:59:46.608Z,63.00
2023-04-19T13:02:32.682Z,61.54
2023-04-19T13:05:18.836Z,59.89
2023-04-19T13:08:05.151Z,60.07
2023-04-19T13:10:51.263Z,61.07
2023-04-19T13:13:37.260Z,60.53
2023-04-19T13:16:23.309Z,60.40
2023-04-19T13:19:09.230Z,60.33
2023-04-19T13:21:55.160Z,56.99
2023-04-19T13:24:41.135Z,59.01
2023-04-19T13:27:27.011Z,58.46
2023-04-19T13:30:13.055Z,60.26
2023-04-19T13:32:59.337Z,57.98
2023-04-19T13:35:45.355Z,57.72
2023-04-19T13:38:31.396Z,59.82
2023-04-19T13:41:17.342Z,58.61
2023-04-19T13:44:03.349Z,59.19
2023-04-19T13:46:49.418Z,56.44
2023-04-19T13:49:35.373Z,54.99
2023-04-19T13:52:21.443Z,53.31
2023-04-19T13:55:07.399Z,54.39
2023-04-19T13:57:53.240Z,55.45
2023-04-19T14:00:39.222Z,53.06
2023-04-19T14:03:25.407Z,57.03
2023-04-19T14:08:54.115Z,55.59
2023-04-19T14:11:40.053Z,51.73
2023-04-19T14:14:25.982Z,54.39
2023-04-19T14:17:11.920Z,53.41
2023-04-19T14:19:57.885Z,51.51
2023-04-19T14:22:43.819Z,55.08
2023-04-19T14:25:29.771Z,53.49
2023-04-19T14:28:15.644Z,51.53
2023-04-19T14:31:01.444Z,50.24
2023-04-19T14:33:47.436Z,47.26
2023-04-19T14:36:33.480Z,50.48
2023-04-19T14:39:20.381Z,46.71
2023-04-19T14:42:06.184Z,51.30
2023-04-19T14:44:52.285Z,53.34
2023-04-19T14:47:38.361Z,53.57
2023-04-19T14:50:24.568Z,52.96
2023-04-19T14:53:10.392Z,54.47
2023-04-19T14:55:56.177Z,54.30
2023-04-19T14:58:42.216Z,51.10
2023-04-19T15:01:28.054Z,55.36
2023-04-19T15:04:14.130Z,53.63
2023-04-19T15:07:00.393Z,55.00
2023-04-19T15:09:46.268Z,54.91
2023-04-19T15:12:32.322Z,54.65
2023-04-19T15:15:18.145Z,56.33
2023-04-19T15:18:04.001Z,54.08
2023-04-19T15:20:49.946Z,55.24
2023-04-19T15:23:35.853Z,54.35
2023-04-19T15:26:21.680Z,56.32
2023-04-19T15:29:07.558Z,55.56
2023-04-19T15:31:53.419Z,55.10
2023-04-19T15:34:39.754Z,56.99
2023-04-19T15:37:25.597Z,56.95
2023-04-19T15:40:11.309Z,55.44
2023-04-19T15:42:57.287Z,54.95
2023-04-19T15:45:45.112Z,56.07
2023-04-19T15:48:31.011Z,56.39
2023-04-19T15:51:17.037Z,55.04
2023-04-19T15:54:02.866Z,55.35
2023-04-19T15:56:48.632Z,57.03
2023-04-19T15:59:34.405Z,54.28
2023-04-19T16:02:20.488Z,55.81
2023-04-19T16:05:06.503Z,56.92
2023-04-19T16:07:52.365Z,56.34
2023-04-19T16:10:38.263Z,58.72
2023-04-19T16:13:24.249Z,59.41
2023-04-19T16:16:10.053Z,59.26
2023-04-19T16:18:56.015Z,58.29
2023-04-19T16:21:43.751Z,59.27
2023-04-19T16:24:29.696Z,61.50
2023-04-19T16:27:15.700Z,60.29
2023-04-19T16:30:01.560Z,60.16
2023-04-19T16:32:47.622Z,59.18
2023-04-19T16:35:33.599Z,59.84
2023-04-19T16:38:19.426Z,58.39
2023-04-19T16:41:05.146Z,58.92
2023-04-19T16:43:51.078Z,57.85
2023-04-19T16:46:36.943Z,58.62
2023-04-19T16:49:22.951Z,60.04
2023-04-19T16:52:08.771Z,57.97
2023-04-19T16:54:54.800Z,59.94
2023-04-19T16:57:40.791Z,59.85
2023-04-19T17:00:26.821Z,58.76
2023-04-19T17:03:12.918Z,59.21
2023-04-19T17:05:59.131Z,60.45
2023-04-19T17:08:45.023Z,59.84
2023-04-19T17:11:30.940Z,60.26
2023-04-19T17:14:16.982Z,60.63
2023-04-19T17:17:03.061Z,61.30
2023-04-19T17:19:48.975Z,61.62
2023-04-19T17:22:34.812Z,60.07
2023-04-19T17:25:22.238Z,59.83
2023-04-19T17:28:08.614Z,60.79
2023-04-19T17:30:54.444Z,61.81
2023-04-19T17:33:40.390Z,61.55
2023-04-19T17:36:26.261Z,61.35
2023-04-19T17:39:12.082Z,60.63
2023-04-19T17:41:57.851Z,61.23
2023-04-19T17:44:43.708Z,59.92
2023-04-19T17:47:29.620Z,62.00
2023-04-19T17:50:15.407Z,63.36
2023-04-19T17:53:01.186Z,63.71
2023-04-19T17:55:47.164Z,64.91
2023-04-19T17:58:32.992Z,63.35
2023-04-19T18:01:18.813Z,63.37
2023-04-19T18:04:05.136Z,64.94
2023-04-19T18:06:51.114Z,65.45
2023-04-19T18:09:37.139Z,66.28
2023-04-19T18:12:22.957Z,64.72
2023-04-19T18:15:08.776Z,65.57
2023-04-19T18:17:54.675Z,66.46
2023-04-19T18:20:40.333Z,66.52
2023-04-19T18:23:28.270Z,67.72
2023-04-19T18:26:14.288Z,67.05
2023-04-19T18:29:00.152Z,67.00
2023-04-19T18:31:46.049Z,67.44
2023-04-19T18:34:31.944Z,66.86
2023-04-19T18:37:17.749Z,67.67
2023-04-19T18:40:03.706Z,67.46
2023-04-19T18:42:49.587Z,67.37
2023-04-19T18:45:35.767Z,68.29
2023-04-19T18:48:21.823Z,67.94
2023-04-19T18:51:07.613Z,67.54
2023-04-19T18:53:53.442Z,68.16
2023-04-19T18:57:18.404Z,68.54
2023-04-19T18:59:45.117Z,67.72
2023-04-19T19:02:31.025Z,68.20
2023-04-19T19:05:17.411Z,68.48
2023-04-19T19:08:03.669Z,68.57
2023-04-19T19:11:14.337Z,69.59
2023-04-19T19:13:56.196Z,69.26
2023-04-19T19:16:51.268Z,70.52
2023-04-19T19:19:37.802Z,69.57
2023-04-19T19:22:28.263Z,68.78
2023-04-19T19:25:14.829Z,69.54
2023-04-19T19:30:49.851Z,70.23
2023-04-19T19:33:38.908Z,69.16
2023-04-19T19:36:25.938Z,69.21
2023-04-19T19:39:11.752Z,68.89
2023-04-19T19:42:06.063Z,69.75
2023-04-19T19:44:52.619Z,69.75
2023-04-19T19:47:44.554Z,70.53
2023-04-19T19:53:20.609Z,70.47
2023-04-19T19:56:13.054Z,71.08
2023-04-19T19:59:04.904Z,71.37
2023-04-19T20:01:50.784Z,71.31
2023-04-19T20:04:36.800Z,70.40
2023-04-19T20:07:33.273Z,71.51
2023-04-19T20:10:28.013Z,70.94
2023-04-19T20:13:13.973Z,71.59
2023-04-19T20:15:59.817Z,71.82
2023-04-19T20:18:45.664Z,72.15
2023-04-19T20:21:31.440Z,72.39
2023-04-19T20:24:17.237Z,72.04
2023-04-19T20:27:03.136Z,72.59
2023-04-19T20:29:48.842Z,73.41
2023-04-19T20:32:34.739Z,73.48
2023-04-19T20:35:20.615Z,73.71
2023-04-19T20:38:06.496Z,74.05
2023-04-19T20:40:52.379Z,73.67
2023-04-19T20:43:38.183Z,73.77
2023-04-19T20:46:24.223Z,73.47
2023-04-19T20:49:10.449Z,73.06
2023-04-19T20:51:56.396Z,72.49
2023-04-19T20:54:42.308Z,73.73
2023-04-19T20:57:28.131Z,72.91
2023-04-19T21:00:14.075Z,73.43
2023-04-19T21:03:00.027Z,74.00
2023-04-19T21:05:45.909Z,74.16
2023-04-19T21:08:31.912Z,74.45
2023-04-19T21:11:17.966Z,74.11
2023-04-19T21:14:03.869Z,74.68
2023-04-19T21:16:49.657Z,74.73
2023-04-19T21:19:35.427Z,74.01
2023-04-19T21:22:21.315Z,74.10
2023-04-19T21:25:07.292Z,74.30
2023-04-19T21:27:53.167Z,75.34
2023-04-19T21:30:39.060Z,75.50
2023-04-19T21:33:24.900Z,75.33
2023-04-19T21:36:10.907Z,76.67
2023-04-19T21:38:56.887Z,75.11
2023-04-19T21:41:42.779Z,75.45
2023-04-19T21:44:28.457Z,74.59
2023-04-19T21:47:14.392Z,74.29
2023-04-19T21:50:00.282Z,76.52
2023-04-19T21:52:46.343Z,77.63
2023-04-19T21:55:34.368Z,77.16
2023-04-19T21:58:20.255Z,77.88
2023-04-19T22:01:06.025Z,77.99
2023-04-19T22:03:52.193Z,79.21
2023-04-19T22:06:38.248Z,79.04
2023-04-19T22:09:24.005Z,80.42
2023-04-19T22:12:09.848Z,81.30
2023-04-19T22:14:55.812Z,82.22
2023-04-19T22:17:41.906Z,81.05
2023-04-19T22:20:27.986Z,82.26
2023-04-19T22:23:14.055Z,83.84
2023-04-19T22:26:00.108Z,84.68
2023-04-19T22:28:46.003Z,84.65
2023-04-19T22:31:32.054Z,85.74
2023-04-19T22:34:17.770Z,86.26
2023-04-19T22:37:03.669Z,87.76
2023-04-19T22:39:49.535Z,87.82
2023-04-19T22:42:35.386Z,88.00
2023-04-19T22:45:21.305Z,87.94
2023-04-19T22:48:07.124Z,88.85
2023-04-19T22:50:53.112Z,90.77
2023-04-19T22:53:39.066Z,92.51
2023-04-19T22:56:24.808Z,93.82
2023-04-19T22:59:10.770Z,95.07
2023-04-19T23:01:56.814Z,98.91
2023-04-19T23:04:43.077Z,98.59
2023-04-19T23:07:29.021Z,100.00
2023-04-19T23:10:14.929Z,100.00
2023-04-19T23:13:00.976Z,100.00
2023-04-19T23:15:46.946Z,100.00
2023-04-19T23:18:32.734Z,100.00
2023-04-19T23:21:18.559Z,100.00
2023-04-19T23:24:04.361Z,100.00
2023-04-19T23:26:50.122Z,100.00
2023-04-19T23:29:36.066Z,100.00
2023-04-19T23:32:22.045Z,100.00
2023-04-19T23:35:08.032Z,100.00
2023-04-19T23:37:54.056Z,100.00
2023-04-19T23:40:39.826Z,100.00
2023-04-19T23:43:25.699Z,100.00
2023-04-19T23:46:11.540Z,100.00
2023-04-19T23:48:57.455Z,100.00
2023-04-19T23:51:43.407Z,100.00
2023-04-19T23:54:29.225Z,100.00
2023-04-19T23:57:15.310Z,100.00
